Time;durP1;ratioP1;P1;durP2;ratioP2;P2;SDS_P1;SDS_P2;PMS_P1;PMS_P2;Temp;Humidity;BMP_temperature;BMP_pressure;BME280_temperature;BME280_humidity;BME280_pressure;Samples;Min_cycle;Max_cycle;Signal;HPM_P1;HPM_P2
2023/02/19 02:58:59;;;;;;;;;;;;;;;;;;6278411;22;19915;-94
2023/02/19 03:04:11;;;;;;;;;;;;;;;;;;6282424;22;19993;-95
2023/02/19 03:06:37;;;;;;;;;;;;;;;;;;6309277;22;19955;-95
2023/02/19 03:09:06;;;;;;;;;;;;;;;;;;6309846;22;19919;-93
2023/02/19 03:19:46;;;;;;;;;;;;;;;;;;6309476;22;19966;-94
2023/02/19 03:22:33;;;;;;;;;;;;;;;;;;6257693;22;19919;-95
2023/02/19 03:27:53;;;;;;;;;;;;;;;;;;6284794;22;19922;-94
2023/02/19 03:30:36;;;;;;;;;;;;;;;;;;6311993;22;19919;-93
2023/02/19 03:33:07;;;;;;;;;;;;;;;;;;6284420;22;20443;-94
2023/02/19 03:35:36;;;;;;;;;;;;;;;;;;6259666;22;19914;-95
2023/02/19 03:38:04;;;;;;;;;;;;;;;;;;6284317;22;19918;-95
2023/02/19 03:40:33;;;;;;;;;;;;;;;;;;6260272;22;20121;-96
2023/02/19 03:42:59;;;;;;;;;;;;;;;;;;6285245;22;19978;-95
2023/02/19 03:45:30;;;;;;;;;;;;;;;;;;6312099;22;19981;-95
2023/02/19 03:47:56;;;;;;;;;;;;;;;;;;6284698;22;20268;-95
2023/02/19 03:50:25;;;;;;;;;;;;;;;;;;6260087;22;19930;-95
2023/02/19 03:52:51;;;;;;;;;;;;;;;;;;6259181;22;19919;-95
2023/02/19 03:55:19;;;;;;;;;;;;;;;;;;6285848;22;20236;-95
2023/02/19 03:57:45;;;;;;;;;;;;;;;;;;6259959;22;19915;-93
2023/02/19 04:00:19;;;;;;;;;;;;;;;;;;6259956;22;19948;-94
2023/02/19 04:02:45;;;;;;;;;;;;;;;;;;6285461;22;19986;-93
2023/02/19 04:05:11;;;;;;;;;;;;;;;;;;6312122;22;19926;-92
2023/02/19 04:07:45;;;;;;;;;;;;;;;;;;6285833;22;19915;-95
2023/02/19 04:10:11;;;;;;;;;;;;;;;;;;6286301;22;19919;-95
2023/02/19 04:12:55;;;;;;;;;;;;;;;;;;6285945;22;20036;-94
2023/02/19 04:15:21;;;;;;;;;;;;;;;;;;6286969;22;19915;-94
2023/02/19 05:37:33;;;;;;;;;;;;;;;;;;6219659;23;19939;-94
2023/02/19 05:40:07;;;;;;;;;;;;;;;;;;6192911;23;19916;-93
2023/02/19 05:42:43;;;;;;;;;;;;;;;;;;;;;
2023/02/19 05:45:12;;;;;;;;;;;;;;;;;;6194640;23;19915;-95
2023/02/19 05:47:40;;;;;;;;;;;;;;;;;;6193630;23;19991;-95
2023/02/19 05:50:12;;;;;;;;;;;;;;;;;;6169314;23;19978;-94
2023/02/19 05:52:44;;;;;;;;;;;;;;;;;;6194353;23;19931;-94
2023/02/19 05:55:20;;;;;;;;;;;;;;;;;;6193494;23;19991;-95
2023/02/19 05:57:56;;;;;;;;;;;;;;;;;;;;;
2023/02/19 06:38:58;;;;;;;;;;;;;;;;;;6299910;22;19949;-93
2023/02/19 06:41:26;;;;;;;;;;;;;;;;;;6282778;22;19926;-93
2023/02/19 06:43:52;;;;;;;;;;;;;;;;;;6282570;22;19903;-93
2023/02/19 06:46:18;;;;;;;;;;;;;;;;;;6256371;22;20232;-93
2023/02/19 06:48:44;;;;;;;;;;;;;;;;;;6256163;22;19923;-92
2023/02/19 06:51:10;;;;;;;;;;;;;;;;;;6308632;22;20343;-94
2023/02/19 07:11:59;;;;;;;;;;;;;;;;;;6154122;23;19920;-91
2023/02/19 07:14:25;;;;;;;;;;;;;;;;;;6220428;22;19923;-90
2023/02/19 07:16:51;;;;;;;;;;;;;;;;;;6281773;22;19921;-91
2023/02/19 07:19:17;;;;;;;;;;;;;;;;;;6255622;22;20342;-91
2023/02/19 07:21:42;;;;;;;;;;;;;;;;;;6281260;22;19964;-93
2023/02/19 07:24:09;;;;;;;;;;;;;;;;;;6281697;22;19915;-94
2023/02/19 07:26:34;;;;;;;;;;;;;;;;;;6256555;22;19915;-92
2023/02/19 07:29:00;;;;;;;;;;;;;;;;;;6308799;22;19925;-93
2023/02/19 07:31:29;;;;;;;;;;;;;;;;;;6282486;22;19941;-92
2023/02/19 07:33:55;;;;;;;;;;;;;;;;;;6283129;22;19915;-93
2023/02/19 07:36:21;;;;;;;;;;;;;;;;;;6282135;22;20044;-93
2023/02/19 07:38:47;;;;;;;;;;;;;;;;;;6283736;22;19919;-93
2023/02/19 07:41:15;;;;;;;;;;;;;;;;;;6257126;22;22386;-94
2023/02/19 07:43:43;;;;;;;;;;;;;;;;;;6280902;22;20312;-94
2023/02/19 07:46:09;;;;;;;;;;;;;;;;;;6281296;22;19903;-92
2023/02/19 07:48:36;;;;;;;;;;;;;;;;;;6280998;22;19998;-92
2023/02/19 07:51:01;;;;;;;;;;;;;;;;;;6281822;22;20382;-92
2023/02/19 07:53:27;;;;;;;;;;;;;;;;;;6281744;22;19954;-92
2023/02/19 07:55:53;;;;;;;;;;;;;;;;;;6281879;22;20042;-92
2023/02/19 07:58:19;;;;;;;;;;;;;;;;;;6281841;22;19968;-93
2023/02/19 08:00:45;;;;;;;;;;;;;;;;;;6258233;22;19915;-93
2023/02/19 08:03:11;;;;;;;;;;;;;;;;;;6308525;22;19915;-93
2023/02/19 08:05:58;;;;;;;;;;;;;;;;;;6257252;22;19993;-95
2023/02/19 08:08:24;;;;;;;;;;;;;;;;;;6256582;22;20015;-94
2023/02/19 08:13:47;;;;;;;;;;;;;;;;;;6175564;22;19943;-95
2023/02/19 08:16:14;;;;;;;;;;;;;;;;;;6257510;22;19934;-92
2023/02/19 08:18:40;;;;;;;;;;;;;;;;;;6257844;22;19942;-93
2023/02/19 08:21:06;;;;;;;;;;;;;;;;;;6283477;22;20252;-94
2023/02/19 08:23:32;;;;;;;;;;;;;;;;;;6282386;22;20235;-94
2023/02/19 08:25:58;;;;;;;;;;;;;;;;;;6282254;22;19984;-93
2023/02/19 08:28:24;;;;;;;;;;;;;;;;;;6283526;22;19923;-95
2023/02/19 08:30:50;;;;;;;;;;;;;;;;;;6259257;22;19964;-95
2023/02/19 08:33:16;;;;;;;;;;;;;;;;;;6283590;22;19919;-92
2023/02/19 08:35:42;;;;;;;;;;;;;;;;;;6256236;22;19915;-94
2023/02/19 08:38:15;;;;;;;;;;;;;;;;;;6256361;22;20267;-95
2023/02/19 08:40:41;;;;;;;;;;;;;;;;;;6255890;22;19903;-93
2023/02/19 08:43:07;;;;;;;;;;;;;;;;;;6256620;22;20283;-93
2023/02/19 08:45:35;;;;;;;;;;;;;;;;;;6282486;22;19954;-94
2023/02/19 08:48:01;;;;;;;;;;;;;;;;;;6254934;22;19915;-93
2023/02/19 08:50:27;;;;;;;;;;;;;;;;;;6309199;22;20036;-92
2023/02/19 08:52:53;;;;;;;;;;;;;;;;;;6257386;22;19915;-93
2023/02/19 08:55:19;;;;;;;;;;;;;;;;;;6253858;22;19941;-92
2023/02/19 08:57:45;;;;;;;;;;;;;;;;;;6281479;22;20204;-93
2023/02/19 09:00:11;;;;;;;;;;;;;;;;;;6281324;22;19915;-91
2023/02/19 09:02:36;;;;;;;;;;;;;;;;;;6255536;22;19932;-91
2023/02/19 09:05:03;;;;;;;;;;;;;;;;;;6255658;22;20004;-91
2023/02/19 09:07:29;;;;;;;;;;;;;;;;;;6255996;22;20333;-92
2023/02/19 09:09:55;;;;;;;;;;;;;;;;;;6281124;22;19968;-92
2023/02/19 09:12:21;;;;;;;;;;;;;;;;;;6281145;22;19968;-92
2023/02/19 09:14:47;;;;;;;;;;;;;;;;;;6281411;22;19919;-92
2023/02/19 09:17:13;;;;;;;;;;;;;;;;;;6255579;22;19926;-92
2023/02/19 09:19:40;;;;;;;;;;;;;;;;;;6255698;22;19915;-91
2023/02/19 09:22:06;;;;;;;;;;;;;;;;;;6255451;22;19915;-90
2023/02/19 09:24:35;;;;;;;;;;;;;;;;;;6256810;22;19915;-92
2023/02/19 09:27:01;;;;;;;;;;;;;;;;;;6282496;22;20240;-92
2023/02/19 09:29:27;;;;;;;;;;;;;;;;;;6254965;22;19965;-91
2023/02/19 09:31:53;;;;;;;;;;;;;;;;;;6256659;22;19915;-92
2023/02/19 09:34:19;;;;;;;;;;;;;;;;;;6255331;22;19915;-92
2023/02/19 09:36:45;;;;;;;;;;;;;;;;;;6255300;22;19941;-92
2023/02/19 09:39:11;;;;;;;;;;;;;;;;;;6255494;22;19918;-92
2023/02/19 09:41:37;;;;;;;;;;;;;;;;;;6282523;22;20307;-91
2023/02/19 09:44:03;;;;;;;;;;;;;;;;;;6256423;22;19915;-93
2023/02/19 09:46:29;;;;;;;;;;;;;;;;;;6256847;22;19919;-93
2023/02/19 09:48:55;;;;;;;;;;;;;;;;;;6257673;22;19934;-91
2023/02/19 09:51:21;;;;;;;;;;;;;;;;;;6256957;22;19994;-90
2023/02/19 09:53:47;;;;;;;;;;;;;;;;;;6256672;22;19938;-92
2023/02/19 09:56:13;;;;;;;;;;;;;;;;;;6255982;22;19922;-92
2023/02/19 09:58:39;;;;;;;;;;;;;;;;;;6281990;22;19922;-93
2023/02/19 10:01:06;;;;;;;;;;;;;;;;;;6281628;22;19909;-93
2023/02/19 10:03:33;;;;;;;;;;;;;;;;;;6255796;22;19918;-95
2023/02/19 10:06:02;;;;;;;;;;;;;;;;;;6256049;22;19915;-94
2023/02/19 10:08:28;;;;;;;;;;;;;;;;;;6254621;22;19957;-92
2023/02/19 10:10:54;;;;;;;;;;;;;;;;;;6255672;22;19918;-92
2023/02/19 10:13:20;;;;;;;;;;;;;;;;;;6255677;22;19925;-93
2023/02/19 10:15:46;;;;;;;;;;;;;;;;;;6256419;22;19915;-95
2023/02/19 10:18:12;;;;;;;;;;;;;;;;;;6255578;22;19992;-95
2023/02/19 10:20:38;;;;;;;;;;;;;;;;;;6255847;22;19915;-94
2023/02/19 10:23:04;;;;;;;;;;;;;;;;;;6236929;22;19998;-96
2023/02/19 10:25:30;;;;;;;;;;;;;;;;;;6253456;22;19915;-93
2023/02/19 10:27:56;;;;;;;;;;;;;;;;;;6255805;22;19922;-93
2023/02/19 10:30:23;;;;;;;;;;;;;;;;;;6254270;22;19919;-93
2023/02/19 10:32:50;;;;;;;;;;;;;;;;;;6256315;22;19915;-93
2023/02/19 10:35:16;;;;;;;;;;;;;;;;;;6256172;22;19937;-93
2023/02/19 10:37:42;;;;;;;;;;;;;;;;;;6255968;22;19947;-92
2023/02/19 10:40:08;;;;;;;;;;;;;;;;;;6282153;22;19952;-93
2023/02/19 10:42:34;;;;;;;;;;;;;;;;;;6256208;22;19937;-93
2023/02/19 10:45:00;;;;;;;;;;;;;;;;;;6281721;22;20333;-92
2023/02/19 10:47:26;;;;;;;;;;;;;;;;;;6256005;22;19919;-94
2023/02/19 10:49:52;;;;;;;;;;;;;;;;;;6281462;22;19968;-93
2023/02/19 10:52:18;;;;;;;;;;;;;;;;;;6256514;22;19915;-95
2023/02/19 10:54:44;;;;;;;;;;;;;;;;;;6256716;22;19994;-93
2023/02/19 10:57:10;;;;;;;;;;;;;;;;;;6257181;22;19965;-94
2023/02/19 10:59:39;;;;;;;;;;;;;;;;;;6257722;22;19918;-94
2023/02/19 11:02:05;;;;;;;;;;;;;;;;;;6282422;22;20380;-93
2023/02/19 11:04:33;;;;;;;;;;;;;;;;;;6256438;22;19910;-94
2023/02/19 11:06:59;;;;;;;;;;;;;;;;;;6256378;22;19915;-94
2023/02/19 11:09:27;;;;;;;;;;;;;;;;;;6281583;22;20354;-92
2023/02/19 11:11:52;;;;;;;;;;;;;;;;;;6281420;22;20232;-92
2023/02/19 11:14:20;;;;;;;;;;;;;;;;;;6281650;22;19921;-91
2023/02/19 11:16:46;;;;;;;;;;;;;;;;;;6255790;22;19929;-92
2023/02/19 11:19:12;;;;;;;;;;;;;;;;;;6255307;22;19915;-92
2023/02/19 11:21:38;;;;;;;;;;;;;;;;;;6280751;22;20248;-91
2023/02/19 11:24:03;;;;;;;;;;;;;;;;;;6255120;22;19919;-92
2023/02/19 11:26:31;;;;;;;;;;;;;;;;;;6280970;22;19989;-91
2023/02/19 11:28:57;;;;;;;;;;;;;;;;;;6255871;22;19923;-92
2023/02/19 11:31:23;;;;;;;;;;;;;;;;;;6281011;22;19964;-93
2023/02/19 11:33:49;;;;;;;;;;;;;;;;;;6255748;22;20320;-92
2023/02/19 11:36:16;;;;;;;;;;;;;;;;;;6281618;22;19929;-92
2023/02/19 11:38:42;;;;;;;;;;;;;;;;;;6281116;22;19914;-92
2023/02/19 11:41:08;;;;;;;;;;;;;;;;;;6255671;22;19998;-93
2023/02/19 11:43:34;;;;;;;;;;;;;;;;;;6280738;22;19951;-93
2023/02/19 11:46:00;;;;;;;;;;;;;;;;;;6256268;22;19918;-93
2023/02/19 11:48:26;;;;;;;;;;;;;;;;;;6256994;22;19919;-94
2023/02/19 11:50:52;;;;;;;;;;;;;;;;;;6257376;22;19969;-93
2023/02/19 11:53:18;;;;;;;;;;;;;;;;;;6257649;22;19915;-93
2023/02/19 11:55:44;;;;;;;;;;;;;;;;;;6282395;22;19979;-93
2023/02/19 11:58:10;;;;;;;;;;;;;;;;;;6257593;22;19915;-93
2023/02/19 12:00:36;;;;;;;;;;;;;;;;;;6283187;22;19915;-93
2023/02/19 12:03:03;;;;;;;;;;;;;;;;;;6257468;22;19922;-94
2023/02/19 12:08:05;;;;;;;;;;;;;;;;;;6305812;22;19922;-93
2023/02/19 12:10:32;;;;;;;;;;;;;;;;;;6257243;22;19919;-92
2023/02/19 12:12:58;;;;;;;;;;;;;;;;;;6282243;22;19922;-94
2023/02/19 12:15:24;;;;;;;;;;;;;;;;;;6257426;22;19919;-93
2023/02/19 12:17:50;;;;;;;;;;;;;;;;;;6257313;22;20316;-93
2023/02/19 12:20:16;;;;;;;;;;;;;;;;;;6310490;22;19919;-95
2023/02/19 12:22:41;;;;;;;;;;;;;;;;;;6257705;22;19919;-93
2023/02/19 12:25:07;;;;;;;;;;;;;;;;;;6257559;22;19994;-94
2023/02/19 12:27:36;;;;;;;;;;;;;;;;;;6257478;22;19977;-94
2023/02/19 12:30:02;;;;;;;;;;;;;;;;;;6310469;22;19915;-95
2023/02/19 12:32:28;;;;;;;;;;;;;;;;;;6257671;22;19918;-94
2023/02/19 12:37:59;;;;;;;;;;;;;;;;;;6295707;22;19949;-94
2023/02/19 12:40:26;;;;;;;;;;;;;;;;;;6283231;22;19919;-96
2023/02/19 12:42:52;;;;;;;;;;;;;;;;;;6257572;22;19915;-96
2023/02/19 12:45:19;;;;;;;;;;;;;;;;;;6282777;22;19914;-95
2023/02/19 12:47:45;;;;;;;;;;;;;;;;;;6258135;22;19923;-96
2023/02/19 12:50:10;;;;;;;;;;;;;;;;;;6282800;22;19968;-94
2023/02/19 12:52:39;;;;;;;;;;;;;;;;;;6256568;22;19922;-93
2023/02/19 12:55:05;;;;;;;;;;;;;;;;;;6255855;22;19918;-94
2023/02/19 12:57:31;;;;;;;;;;;;;;;;;;6256621;22;19922;-94
2023/02/19 12:59:58;;;;;;;;;;;;;;;;;;6282264;22;19915;-94
2023/02/19 13:02:24;;;;;;;;;;;;;;;;;;6257362;22;20316;-95
2023/02/19 13:12:38;;;;;;;;;;;;;;;;;;6298071;22;19919;-92
2023/02/19 13:18:00;;;;;;;;;;;;;;;;;;6277219;22;19957;-94
2023/02/19 13:39:00;;;;;;;;;;;;;;;;;;6272124;22;19919;-95
2023/02/19 13:41:26;;;;;;;;;;;;;;;;;;6282450;22;19914;-93
2023/02/19 13:44:13;;;;;;;;;;;;;;;;;;6282312;22;19915;-93
2023/02/19 13:46:41;;;;;;;;;;;;;;;;;;6281188;22;19976;-94
2023/02/19 13:51:52;;;;;;;;;;;;;;;;;;6289346;22;19947;-96
2023/02/19 13:54:18;;;;;;;;;;;;;;;;;;6285401;22;19926;-93
2023/02/19 14:10:04;;;;;;;;;;;;;;;;;;6279358;22;19919;-93
2023/02/19 14:12:51;;;;;;;;;;;;;;;;;;6273960;22;19914;-96
2023/02/19 14:15:19;;;;;;;;;;;;;;;;;;6281008;22;19926;-95
2023/02/19 14:17:45;;;;;;;;;;;;;;;;;;6282136;22;19919;-94
2023/02/19 14:20:32;;;;;;;;;;;;;;;;;;6251729;22;19943;-95
2023/02/19 14:22:57;;;;;;;;;;;;;;;;;;6250172;22;19937;-94
2023/02/19 14:25:23;;;;;;;;;;;;;;;;;;6255236;22;19998;-93
2023/02/19 14:27:49;;;;;;;;;;;;;;;;;;6276950;22;20259;-92
2023/02/19 14:30:15;;;;;;;;;;;;;;;;;;6276236;22;19923;-93
2023/02/19 14:32:41;;;;;;;;;;;;;;;;;;6276285;22;19915;-93
2023/02/19 14:35:07;;;;;;;;;;;;;;;;;;6276773;22;19923;-93
2023/02/19 14:37:33;;;;;;;;;;;;;;;;;;6251113;22;19922;-93
2023/02/19 14:39:59;;;;;;;;;;;;;;;;;;6276667;22;19915;-95
2023/02/19 14:42:32;;;;;;;;;;;;;;;;;;6250997;22;19923;-94
2023/02/19 14:44:58;;;;;;;;;;;;;;;;;;6251065;22;19921;-93
2023/02/19 14:47:26;;;;;;;;;;;;;;;;;;6251082;22;19923;-94
2023/02/19 14:49:52;;;;;;;;;;;;;;;;;;6250961;22;19946;-94
2023/02/19 14:52:18;;;;;;;;;;;;;;;;;;6251060;22;20371;-93
2023/02/19 14:54:47;;;;;;;;;;;;;;;;;;6251836;22;20133;-95
2023/02/19 14:57:16;;;;;;;;;;;;;;;;;;6251351;22;19915;-94
2023/02/19 14:59:42;;;;;;;;;;;;;;;;;;6277780;22;19989;-94
2023/02/19 15:02:08;;;;;;;;;;;;;;;;;;6250962;22;19938;-93
2023/02/19 15:04:34;;;;;;;;;;;;;;;;;;6276193;22;19941;-92
2023/02/19 15:07:00;;;;;;;;;;;;;;;;;;6249966;22;19994;-92
2023/02/19 15:09:26;;;;;;;;;;;;;;;;;;6275793;22;19977;-93
2023/02/19 15:11:53;;;;;;;;;;;;;;;;;;6253113;22;19919;-95
2023/02/19 15:14:19;;;;;;;;;;;;;;;;;;6276623;22;19965;-93
2023/02/19 15:16:45;;;;;;;;;;;;;;;;;;6251150;22;20382;-92
2023/02/19 15:19:11;;;;;;;;;;;;;;;;;;6250564;22;19915;-94
2023/02/19 15:21:40;;;;;;;;;;;;;;;;;;6251690;22;19955;-94
2023/02/19 15:24:12;;;;;;;;;;;;;;;;;;6273184;22;20368;-93
2023/02/19 15:26:41;;;;;;;;;;;;;;;;;;6272695;22;19922;-93
2023/02/19 15:29:11;;;;;;;;;;;;;;;;;;6276159;22;19915;-94
2023/02/19 15:31:37;;;;;;;;;;;;;;;;;;6250450;22;19919;-93
2023/02/19 15:34:03;;;;;;;;;;;;;;;;;;6250793;22;19922;-93
2023/02/19 15:36:29;;;;;;;;;;;;;;;;;;6250673;22;19922;-94
2023/02/19 15:38:59;;;;;;;;;;;;;;;;;;6250592;22;19919;-93
2023/02/19 15:50:16;;;;;;;;;;;;;;;;;;6289595;22;19919;-96
2023/02/19 15:52:50;;;;;;;;;;;;;;;;;;6305793;22;19915;-95
2023/02/19 15:55:28;;;;;;;;;;;;;;;;;;6255525;22;19923;-94
2023/02/19 16:08:19;;;;;;;;;;;;;;;;;;6293130;22;19926;-95
2023/02/19 16:10:45;;;;;;;;;;;;;;;;;;6255607;22;20207;-94
2023/02/19 16:13:11;;;;;;;;;;;;;;;;;;6255681;22;19915;-94
2023/02/19 16:15:58;;;;;;;;;;;;;;;;;;6282100;22;19922;-95
2023/02/19 16:18:23;;;;;;;;;;;;;;;;;;6307002;22;19915;-95
2023/02/19 16:20:55;;;;;;;;;;;;;;;;;;6256250;22;20024;-96
2023/02/19 16:23:23;;;;;;;;;;;;;;;;;;6281503;22;19919;-95
2023/02/19 16:26:10;;;;;;;;;;;;;;;;;;6255564;22;19993;-95
2023/02/19 16:31:30;;;;;;;;;;;;;;;;;;6257186;22;19959;-96
2023/02/19 17:20:00;;;;;;;;;;;;;;;;;;6290854;22;19919;-95
2023/02/19 17:22:26;;;;;;;;;;;;;;;;;;6259600;22;19915;-93
2023/02/19 17:25:11;;;;;;;;;;;;;;;;;;;;;
2023/02/19 17:30:42;;;;;;;;;;;;;;;;;;6266694;22;19925;-92
2023/02/19 17:33:10;;;;;;;;;;;;;;;;;;6278332;22;19919;-91
2023/02/19 17:35:41;;;;;;;;;;;;;;;;;;6280581;22;20240;-91
2023/02/19 17:38:08;;;;;;;;;;;;;;;;;;6255165;22;19938;-93
2023/02/19 17:40:34;;;;;;;;;;;;;;;;;;6280640;22;19926;-92
2023/02/19 17:43:00;;;;;;;;;;;;;;;;;;6256538;22;19915;-95
2023/02/19 17:45:26;;;;;;;;;;;;;;;;;;6256097;22;19942;-93
2023/02/19 17:47:52;;;;;;;;;;;;;;;;;;6256149;22;19921;-92
2023/02/19 17:50:18;;;;;;;;;;;;;;;;;;6281883;22;19919;-94
2023/02/19 17:52:44;;;;;;;;;;;;;;;;;;6280992;22;20332;-92
2023/02/19 17:55:09;;;;;;;;;;;;;;;;;;6255738;22;19953;-93
2023/02/19 17:57:35;;;;;;;;;;;;;;;;;;6255924;22;19915;-93
2023/02/19 18:00:03;;;;;;;;;;;;;;;;;;6256010;22;19972;-93
2023/02/19 18:02:34;;;;;;;;;;;;;;;;;;6282003;22;20328;-94
2023/02/19 18:05:00;;;;;;;;;;;;;;;;;;6259588;22;19915;-95
2023/02/19 18:07:26;;;;;;;;;;;;;;;;;;6256030;22;19921;-91
2023/02/19 18:09:52;;;;;;;;;;;;;;;;;;6281868;22;19919;-92
2023/02/19 18:12:18;;;;;;;;;;;;;;;;;;6256398;22;19940;-93
2023/02/19 18:14:45;;;;;;;;;;;;;;;;;;6281850;22;19915;-92
2023/02/19 18:17:11;;;;;;;;;;;;;;;;;;6282087;22;20287;-92
2023/02/19 18:19:37;;;;;;;;;;;;;;;;;;6256122;22;19989;-93
2023/02/19 18:27:41;;;;;;;;;;;;;;;;;;6291441;22;19954;-92
2023/02/19 18:30:07;;;;;;;;;;;;;;;;;;6256172;22;19922;-94
2023/02/19 18:32:33;;;;;;;;;;;;;;;;;;6281814;22;19915;-93
2023/02/19 18:34:59;;;;;;;;;;;;;;;;;;6282159;22;19918;-93
2023/02/19 18:37:25;;;;;;;;;;;;;;;;;;6282184;22;19929;-92
2023/02/19 18:39:51;;;;;;;;;;;;;;;;;;6256379;22;19915;-93
2023/02/19 18:42:17;;;;;;;;;;;;;;;;;;6256217;22;19918;-94
2023/02/19 18:44:43;;;;;;;;;;;;;;;;;;6256204;22;19985;-93
2023/02/19 18:47:10;;;;;;;;;;;;;;;;;;6256032;22;20316;-92
2023/02/19 18:49:57;;;;;;;;;;;;;;;;;;6281995;22;19923;-95
2023/02/19 18:52:24;;;;;;;;;;;;;;;;;;6312218;22;19953;-92
2023/02/19 18:58:07;;;;;;;;;;;;;;;;;;6298256;22;19922;-94
2023/02/19 19:00:42;;;;;;;;;;;;;;;;;;6256088;22;20328;-93
2023/02/19 19:03:08;;;;;;;;;;;;;;;;;;6255884;22;19915;-94
2023/02/19 19:05:34;;;;;;;;;;;;;;;;;;6282362;22;20209;-94
2023/02/19 19:43:14;;;;;;;;;;;;;;;;;;6086158;23;19928;-96
2023/02/19 19:55:24;;;;;;;;;;;;;;;;;;;;;
2023/02/19 19:57:59;;;;;;;;;;;;;;;;;;6077112;23;19920;-95
2023/02/19 20:03:11;;;;;;;;;;;;;;;;;;;;;
2023/02/19 20:11:33;;;;;;;;;;;;;;;;;;6185354;23;19960;-95
2023/02/19 20:13:59;;;;;;;;;;;;;;;;;;6161213;23;19916;-94
2023/02/19 20:16:25;;;;;;;;;;;;;;;;;;6165409;23;20329;-96
2023/02/19 20:25:15;;;;;;;;;;;;;;;;;;6047395;23;19924;-94
2023/02/19 20:28:00;;;;;;;;;;;;;;;;;;;;;
2023/02/19 20:30:36;;;;;;;;;;;;;;;;;;6186439;23;19920;-93
2023/02/19 20:33:02;;;;;;;;;;;;;;;;;;6136114;23;19926;-95
2023/02/19 20:35:32;;;;;;;;;;;;;;;;;;6203369;22;19946;-94
2023/02/19 20:38:01;;;;;;;;;;;;;;;;;;6252869;22;19923;-94
2023/02/19 20:40:29;;;;;;;;;;;;;;;;;;6254040;22;19986;-90
2023/02/19 20:42:55;;;;;;;;;;;;;;;;;;6225369;22;19922;-91
2023/02/19 20:45:21;;;;;;;;;;;;;;;;;;6225524;22;19919;-91
2023/02/19 20:47:47;;;;;;;;;;;;;;;;;;6250408;22;19915;-90
2023/02/19 20:50:13;;;;;;;;;;;;;;;;;;6275777;22;20538;-90
2023/02/19 20:52:40;;;;;;;;;;;;;;;;;;6224392;22;19953;-90
2023/02/19 20:55:06;;;;;;;;;;;;;;;;;;6251168;22;19926;-91
2023/02/19 20:57:32;;;;;;;;;;;;;;;;;;6251169;22;19998;-90
2023/02/19 20:59:58;;;;;;;;;;;;;;;;;;6251361;22;19915;-91
2023/02/19 21:02:26;;;;;;;;;;;;;;;;;;6250346;22;19915;-89
2023/02/19 21:04:52;;;;;;;;;;;;;;;;;;6250441;22;19972;-90
2023/02/19 21:07:18;;;;;;;;;;;;;;;;;;6277561;22;19919;-89
2023/02/19 21:09:44;;;;;;;;;;;;;;;;;;6249580;22;19923;-89
2023/02/19 21:12:11;;;;;;;;;;;;;;;;;;6225349;22;19977;-90
2023/02/19 21:14:37;;;;;;;;;;;;;;;;;;6225186;22;19915;-89
2023/02/19 21:17:04;;;;;;;;;;;;;;;;;;6224953;22;19926;-89
2023/02/19 21:19:30;;;;;;;;;;;;;;;;;;6250103;22;19922;-91
2023/02/19 21:21:56;;;;;;;;;;;;;;;;;;6250755;22;20249;-91
2023/02/19 21:24:22;;;;;;;;;;;;;;;;;;6250832;22;19926;-91
2023/02/19 21:26:48;;;;;;;;;;;;;;;;;;6225963;22;19915;-92
2023/02/19 21:32:00;;;;;;;;;;;;;;;;;;6206994;22;20023;-93
2023/02/19 21:34:33;;;;;;;;;;;;;;;;;;6256940;22;19915;-94
2023/02/19 21:39:59;;;;;;;;;;;;;;;;;;6190762;23;19956;-95
2023/02/19 21:51:52;;;;;;;;;;;;;;;;;;6288877;22;19903;-96
2023/02/19 22:51:40;;;;;;;;;;;;;;;;;;6293481;22;19949;-93
2023/02/19 23:38:18;;;;;;;;;;;;;;;;;;;;;
2023/02/19 23:52:58;;;;;;;;;;;;;;;;;;6180720;23;19927;-94
2023/02/19 23:55:27;;;;;;;;;;;;;;;;;;6303392;22;20362;-96
2023/02/19 23:57:53;;;;;;;;;;;;;;;;;;6258404;22;19955;-95
